Time;durP1;ratioP1;P1;durP2;ratioP2;P2;SDS_P1;SDS_P2;PMS_P1;PMS_P2;Temp;Humidity;BMP_temperature;BMP_pressure;BME280_temperature;BME280_humidity;BME280_pressure;Samples;Min_cycle;Max_cycle;Signal;HPM_P1;HPM_P2
2024/01/30 00:02:37;;;;;;;159.33;80.53;;;;;;;;;;10370499;28;20065;-78
2024/01/30 00:07:38;;;;;;;150.37;76.50;;;;;;;;;;10376893;28;20501;-78
2024/01/30 00:12:39;;;;;;;147.77;75.93;;;;;;;;;;10384348;28;20044;-79
2024/01/30 00:17:40;;;;;;;155.13;76.33;;;;;;;;;;10351464;28;20423;-78
2024/01/30 00:22:41;;;;;;;151.70;74.43;;;;;;;;;;10362541;28;20057;-80
2024/01/30 00:27:42;;;;;;;151.00;76.47;;;;;;;;;;10378747;28;20025;-80
2024/01/30 00:32:43;;;;;;;140.90;73.27;;;;;;;;;;10357751;28;20104;-79
2024/01/30 00:37:44;;;;;;;151.80;77.80;;;;;;;;;;10387703;28;20038;-80
2024/01/30 00:42:45;;;;;;;143.23;72.33;;;;;;;;;;10374123;28;20041;-78
2024/01/30 00:47:46;;;;;;;145.83;73.70;;;;;;;;;;10383603;28;20126;-81
2024/01/30 00:52:47;;;;;;;140.97;71.67;;;;;;;;;;10363507;28;20062;-79
2024/01/30 00:57:49;;;;;;;152.83;76.70;;;;;;;;;;10364081;28;20449;-78
2024/01/30 01:02:50;;;;;;;152.43;77.50;;;;;;;;;;10369760;28;20107;-78
2024/01/30 01:07:51;;;;;;;159.33;80.63;;;;;;;;;;10387623;28;20052;-80
2024/01/30 01:12:58;;;;;;;157.13;79.90;;;;;;;;;;10377896;28;20033;-78
2024/01/30 01:17:59;;;;;;;160.50;83.97;;;;;;;;;;10356062;28;20037;-78
2024/01/30 01:23:00;;;;;;;169.67;83.83;;;;;;;;;;10368251;28;20029;-80
2024/01/30 01:28:01;;;;;;;182.67;92.43;;;;;;;;;;10381473;28;20369;-77
2024/01/30 01:33:02;;;;;;;177.43;88.40;;;;;;;;;;10367699;28;20026;-78
2024/01/30 01:38:03;;;;;;;157.70;81.67;;;;;;;;;;10383374;28;20037;-80
2024/01/30 01:43:11;;;;;;;167.17;81.50;;;;;;;;;;10378122;28;20565;-79
2024/01/30 01:48:13;;;;;;;193.20;98.33;;;;;;;;;;10354097;28;20053;-80
2024/01/30 01:53:14;;;;;;;185.17;95.37;;;;;;;;;;10366955;28;20069;-78
2024/01/30 01:58:15;;;;;;;178.77;92.03;;;;;;;;;;10357265;28;20038;-78
2024/01/30 02:03:21;;;;;;;187.97;91.70;;;;;;;;;;10362503;28;20034;-79
2024/01/30 02:08:22;;;;;;;171.80;89.00;;;;;;;;;;10355959;28;20096;-78
2024/01/30 02:13:23;;;;;;;172.50;90.50;;;;;;;;;;10349690;28;20044;-79
2024/01/30 02:18:24;;;;;;;160.97;83.47;;;;;;;;;;10379189;28;20072;-78
2024/01/30 02:23:25;;;;;;;161.77;82.33;;;;;;;;;;10385757;28;20063;-80
2024/01/30 02:28:27;;;;;;;147.00;78.23;;;;;;;;;;10354983;28;20037;-80
2024/01/30 02:33:28;;;;;;;132.23;70.13;;;;;;;;;;10352494;28;20124;-78
2024/01/30 02:38:29;;;;;;;133.43;68.03;;;;;;;;;;10352101;28;20137;-78
2024/01/30 02:43:30;;;;;;;124.73;65.23;;;;;;;;;;10369691;28;20098;-78
2024/01/30 02:48:31;;;;;;;133.07;68.60;;;;;;;;;;10374067;28;20060;-78
2024/01/30 02:53:32;;;;;;;145.47;72.83;;;;;;;;;;10376952;28;20470;-81
2024/01/30 02:58:33;;;;;;;135.80;70.83;;;;;;;;;;10388612;28;20096;-80
2024/01/30 03:03:35;;;;;;;128.80;66.57;;;;;;;;;;10358648;28;20026;-79
2024/01/30 03:08:37;;;;;;;137.93;69.93;;;;;;;;;;10381969;28;20072;-79
2024/01/30 03:13:38;;;;;;;149.57;73.00;;;;;;;;;;10361094;28;20112;-80
2024/01/30 03:18:39;;;;;;;144.93;74.50;;;;;;;;;;10367277;28;20036;-80
2024/01/30 03:23:46;;;;;;;149.70;75.37;;;;;;;;;;10377368;28;20040;-79
2024/01/30 03:28:47;;;;;;;153.30;77.27;;;;;;;;;;10354775;28;20040;-78
2024/01/30 03:33:48;;;;;;;163.40;78.80;;;;;;;;;;10369883;28;20041;-81
2024/01/30 03:38:49;;;;;;;149.43;75.13;;;;;;;;;;10354826;28;20026;-80
2024/01/30 03:43:50;;;;;;;137.33;71.13;;;;;;;;;;10395234;28;20429;-78
2024/01/30 03:48:51;;;;;;;131.53;68.13;;;;;;;;;;10364001;28;20394;-78
2024/01/30 03:53:52;;;;;;;142.10;69.53;;;;;;;;;;10384214;28;20057;-78
2024/01/30 03:58:54;;;;;;;140.53;71.77;;;;;;;;;;10390386;28;20409;-78
2024/01/30 04:03:55;;;;;;;135.73;69.43;;;;;;;;;;10364867;28;20029;-79
2024/01/30 04:08:56;;;;;;;136.20;68.47;;;;;;;;;;10372021;28;20037;-78
2024/01/30 04:13:57;;;;;;;137.13;67.63;;;;;;;;;;10382639;28;20117;-79
2024/01/30 04:18:58;;;;;;;135.43;65.67;;;;;;;;;;10369848;28;20033;-77
2024/01/30 04:23:59;;;;;;;131.60;66.40;;;;;;;;;;10377150;28;20397;-78
2024/01/30 04:29:00;;;;;;;122.03;60.23;;;;;;;;;;10381472;28;20480;-77
2024/01/30 04:34:01;;;;;;;131.27;65.53;;;;;;;;;;10382371;28;20048;-79
2024/01/30 04:39:03;;;;;;;142.47;68.63;;;;;;;;;;10379142;28;20033;-77
2024/01/30 04:44:04;;;;;;;126.77;60.60;;;;;;;;;;10376461;28;20073;-76
2024/01/30 04:49:07;;;;;;;119.00;58.37;;;;;;;;;;10364320;28;20029;-77
2024/01/30 04:54:08;;;;;;;120.73;60.03;;;;;;;;;;10377925;28;20436;-77
2024/01/30 04:59:09;;;;;;;115.53;57.23;;;;;;;;;;10353372;28;20548;-78
2024/01/30 05:04:11;;;;;;;125.67;62.30;;;;;;;;;;10358445;28;20542;-77
2024/01/30 05:09:12;;;;;;;134.73;67.70;;;;;;;;;;10352543;28;20037;-77
2024/01/30 05:14:14;;;;;;;162.00;81.23;;;;;;;;;;10369588;28;20521;-77
2024/01/30 05:19:17;;;;;;;151.97;79.80;;;;;;;;;;10370358;28;20048;-77
2024/01/30 05:24:18;;;;;;;178.30;91.87;;;;;;;;;;10352821;28;20042;-77
2024/01/30 05:29:19;;;;;;;155.30;81.83;;;;;;;;;;10361847;28;20057;-77
2024/01/30 05:34:20;;;;;;;134.43;71.37;;;;;;;;;;10363220;28;20046;-76
2024/01/30 05:39:21;;;;;;;145.57;70.90;;;;;;;;;;10362230;28;20182;-77
2024/01/30 05:44:22;;;;;;;133.33;67.83;;;;;;;;;;10367946;28;20091;-77
2024/01/30 05:49:23;;;;;;;130.17;63.50;;;;;;;;;;10359379;28;20638;-77
2024/01/30 05:54:24;;;;;;;139.57;69.73;;;;;;;;;;10361902;28;20056;-77
2024/01/30 05:59:25;;;;;;;142.50;70.07;;;;;;;;;;10387367;28;20025;-78
2024/01/30 06:04:26;;;;;;;131.83;64.20;;;;;;;;;;10367692;28;20045;-77
2024/01/30 06:09:28;;;;;;;122.97;62.67;;;;;;;;;;10381237;28;20033;-78
2024/01/30 06:14:29;;;;;;;147.07;72.33;;;;;;;;;;10363741;28;20084;-78
2024/01/30 06:19:30;;;;;;;151.23;75.67;;;;;;;;;;10363768;28;20446;-79
2024/01/30 06:24:31;;;;;;;149.97;77.80;;;;;;;;;;10357492;28;20137;-78
2024/01/30 06:29:39;;;;;;;152.97;77.23;;;;;;;;;;10358866;28;20080;-77
2024/01/30 06:34:43;;;;;;;153.87;77.53;;;;;;;;;;10357362;28;20084;-77
2024/01/30 06:39:44;;;;;;;152.93;78.80;;;;;;;;;;10371969;28;20041;-79
2024/01/30 06:44:45;;;;;;;157.77;76.70;;;;;;;;;;10361447;28;20425;-77
2024/01/30 06:49:46;;;;;;;165.77;77.37;;;;;;;;;;10354799;28;20038;-78
2024/01/30 06:54:48;;;;;;;177.50;86.10;;;;;;;;;;10350955;28;20050;-76
2024/01/30 06:59:49;;;;;;;174.07;86.83;;;;;;;;;;10358381;28;20041;-78
2024/01/30 07:04:50;;;;;;;175.83;86.90;;;;;;;;;;10357919;28;20044;-78
2024/01/30 07:09:57;;;;;;;184.57;86.73;;;;;;;;;;10359816;28;20111;-77
2024/01/30 07:14:59;;;;;;;182.70;93.50;;;;;;;;;;10357901;28;20045;-78
2024/01/30 07:20:00;;;;;;;170.93;95.23;;;;;;;;;;10352837;28;20062;-78
2024/01/30 07:25:01;;;;;;;178.20;86.77;;;;;;;;;;10350325;28;20030;-80
2024/01/30 07:30:03;;;;;;;175.47;84.30;;;;;;;;;;10353377;28;20030;-79
2024/01/30 07:35:04;;;;;;;180.50;88.70;;;;;;;;;;10361241;28;20066;-77
2024/01/30 07:40:13;;;;;;;174.97;85.67;;;;;;;;;;10342912;28;20598;-78
2024/01/30 07:45:14;;;;;;;178.80;86.07;;;;;;;;;;10372276;28;20038;-78
2024/01/30 07:50:16;;;;;;;179.67;89.43;;;;;;;;;;10326024;28;20366;-80
2024/01/30 07:55:17;;;;;;;176.70;88.40;;;;;;;;;;10353597;28;20062;-78
2024/01/30 08:00:19;;;;;;;171.13;92.17;;;;;;;;;;10385994;28;20461;-79
2024/01/30 08:05:22;;;;;;;146.27;74.20;;;;;;;;;;10376176;28;20032;-78
2024/01/30 08:10:23;;;;;;;151.63;80.93;;;;;;;;;;10381901;28;20177;-79
2024/01/30 08:15:24;;;;;;;143.37;75.87;;;;;;;;;;10386375;28;20041;-79
2024/01/30 08:20:25;;;;;;;146.60;81.73;;;;;;;;;;10381953;28;20037;-78
2024/01/30 08:25:26;;;;;;;169.10;99.00;;;;;;;;;;10397400;28;20501;-78
2024/01/30 08:30:27;;;;;;;138.87;75.03;;;;;;;;;;10384668;28;20034;-80
2024/01/30 08:35:31;;;;;;;132.40;71.90;;;;;;;;;;10380558;28;20478;-78
2024/01/30 08:40:32;;;;;;;118.47;64.13;;;;;;;;;;10393294;28;20025;-78
2024/01/30 08:45:33;;;;;;;124.80;66.93;;;;;;;;;;10394670;28;20029;-78
2024/01/30 08:50:34;;;;;;;196.10;108.53;;;;;;;;;;10383400;28;20033;-77
2024/01/30 08:55:35;;;;;;;162.93;85.47;;;;;;;;;;10393597;28;20065;-80
2024/01/30 09:00:43;;;;;;;122.07;62.47;;;;;;;;;;10387772;28;20080;-78
2024/01/30 09:05:44;;;;;;;122.83;67.20;;;;;;;;;;10388461;28;20493;-78
2024/01/30 09:10:45;;;;;;;106.40;53.00;;;;;;;;;;10370652;28;20033;-79
2024/01/30 09:15:46;;;;;;;129.40;62.33;;;;;;;;;;10361094;28;20041;-77
2024/01/30 09:20:47;;;;;;;51.00;25.90;;;;;;;;;;10390515;28;20033;-77
2024/01/30 09:25:55;;;;;;;54.00;28.33;;;;;;;;;;10392761;28;20033;-78
2024/01/30 09:30:56;;;;;;;39.47;19.77;;;;;;;;;;10379833;28;20497;-78
2024/01/30 09:35:57;;;;;;;28.93;14.07;;;;;;;;;;10392878;28;20050;-77
2024/01/30 09:41:02;;;;;;;32.93;17.03;;;;;;;;;;10375142;28;20030;-79
2024/01/30 09:46:04;;;;;;;28.50;14.75;;;;;;;;;;10370172;28;20033;-77
2024/01/30 09:51:05;;;;;;;28.90;13.17;;;;;;;;;;10366432;28;20084;-80
2024/01/30 09:56:06;;;;;;;31.07;15.43;;;;;;;;;;10361715;28;20030;-77
2024/01/30 10:01:07;;;;;;;40.27;18.53;;;;;;;;;;10361798;28;20041;-78
2024/01/30 10:06:08;;;;;;;34.80;17.13;;;;;;;;;;10363686;28;20033;-81
2024/01/30 10:11:09;;;;;;;35.00;16.87;;;;;;;;;;10347257;28;20041;-78
2024/01/30 10:16:10;;;;;;;37.50;17.83;;;;;;;;;;10348250;28;20038;-80
2024/01/30 10:21:12;;;;;;;26.83;12.57;;;;;;;;;;10360287;28;20040;-79
2024/01/30 10:26:13;;;;;;;30.03;13.67;;;;;;;;;;10357097;28;20065;-78
2024/01/30 10:31:17;;;;;;;27.07;11.80;;;;;;;;;;10370694;28;20136;-78
2024/01/30 10:36:29;;;;;;;36.43;15.77;;;;;;;;;;10380715;28;20061;-77
2024/01/30 10:41:32;;;;;;;36.97;16.67;;;;;;;;;;10372492;28;20052;-79
2024/01/30 10:46:34;;;;;;;33.00;15.40;;;;;;;;;;10349461;28;20690;-78
2024/01/30 10:51:44;;;;;;;22.30;11.43;;;;;;;;;;10354286;28;20434;-79
2024/01/30 10:56:52;;;;;;;22.37;10.57;;;;;;;;;;10345463;28;20045;-78
2024/01/30 11:01:53;;;;;;;33.43;14.20;;;;;;;;;;10342767;28;20529;-77
2024/01/30 11:06:54;;;;;;;19.60;10.10;;;;;;;;;;10352167;28;20041;-77
2024/01/30 11:12:02;;;;;;;31.23;14.57;;;;;;;;;;10349375;28;20441;-79
2024/01/30 11:17:04;;;;;;;41.27;19.33;;;;;;;;;;10344819;28;20042;-77
2024/01/30 11:22:07;;;;;;;19.97;10.33;;;;;;;;;;10398262;28;20481;-77
2024/01/30 11:27:10;;;;;;;28.00;13.10;;;;;;;;;;10353330;28;20030;-77
2024/01/30 11:32:11;;;;;;;19.23;9.50;;;;;;;;;;10356385;28;20042;-77
2024/01/30 11:37:14;;;;;;;24.50;14.97;;;;;;;;;;10374009;28;20040;-81
2024/01/30 11:42:15;;;;;;;21.20;10.57;;;;;;;;;;10351065;28;20121;-79
2024/01/30 11:47:23;;;;;;;19.03;10.23;;;;;;;;;;10383341;28;20398;-80
2024/01/30 11:52:24;;;;;;;33.80;15.07;;;;;;;;;;10392353;28;20409;-80
2024/01/30 11:57:25;;;;;;;21.27;9.40;;;;;;;;;;10380829;28;20509;-82
2024/01/30 12:02:26;;;;;;;14.33;8.60;;;;;;;;;;10369853;28;20033;-80
2024/01/30 12:07:27;;;;;;;15.27;9.07;;;;;;;;;;10360294;28;20038;-81
2024/01/30 12:12:28;;;;;;;15.93;7.93;;;;;;;;;;10370315;28;20025;-78
2024/01/30 12:17:31;;;;;;;19.80;10.03;;;;;;;;;;10370727;28;20038;-80
2024/01/30 12:22:32;;;;;;;17.33;8.37;;;;;;;;;;10366417;28;20470;-78
2024/01/30 12:27:33;;;;;;;24.57;11.93;;;;;;;;;;10380574;28;20033;-79
2024/01/30 12:32:37;;;;;;;14.87;8.00;;;;;;;;;;10367940;28;20113;-76
2024/01/30 12:37:39;;;;;;;15.57;9.17;;;;;;;;;;10368827;28;20045;-78
2024/01/30 12:42:40;;;;;;;16.87;9.20;;;;;;;;;;10365627;28;20061;-78
2024/01/30 12:47:41;;;;;;;17.33;9.23;;;;;;;;;;10365146;28;20066;-79
2024/01/30 12:52:43;;;;;;;17.63;7.90;;;;;;;;;;10361265;28;20061;-79
2024/01/30 12:57:44;;;;;;;16.47;8.30;;;;;;;;;;10362550;28;20053;-78
2024/01/30 13:02:45;;;;;;;18.20;9.10;;;;;;;;;;10330014;28;20116;-78
2024/01/30 13:07:46;;;;;;;19.03;9.53;;;;;;;;;;10352270;28;20124;-80
2024/01/30 13:12:47;;;;;;;22.50;10.57;;;;;;;;;;10360736;28;20062;-79
2024/01/30 13:17:48;;;;;;;19.57;9.87;;;;;;;;;;10359794;28;20091;-80
2024/01/30 13:22:50;;;;;;;18.07;9.93;;;;;;;;;;10363722;28;20104;-80
2024/01/30 13:27:51;;;;;;;19.90;10.50;;;;;;;;;;10355813;28;20057;-77
2024/01/30 13:32:52;;;;;;;20.70;10.63;;;;;;;;;;10354130;28;20456;-79
2024/01/30 13:37:53;;;;;;;21.97;10.37;;;;;;;;;;10357332;28;20030;-79
2024/01/30 13:42:54;;;;;;;18.50;9.43;;;;;;;;;;10363174;28;20040;-77
2024/01/30 13:47:55;;;;;;;18.90;9.27;;;;;;;;;;10358798;28;20492;-78
2024/01/30 13:52:57;;;;;;;17.63;8.80;;;;;;;;;;10359135;28;20068;-78
2024/01/30 13:57:59;;;;;;;16.43;8.53;;;;;;;;;;10353581;28;20050;-77
2024/01/30 14:03:07;;;;;;;18.58;9.13;;;;;;;;;;10351436;28;20038;-77
2024/01/30 14:08:08;;;;;;;16.35;8.60;;;;;;;;;;10330067;28;20073;-78
2024/01/30 14:13:11;;;;;;;18.33;9.40;;;;;;;;;;10359961;28;20433;-83
2024/01/30 14:18:13;;;;;;;15.65;8.38;;;;;;;;;;10347512;28;20485;-81
2024/01/30 14:23:14;;;;;;;18.53;9.43;;;;;;;;;;10349554;28;20374;-80
2024/01/30 14:28:15;;;;;;;19.60;10.00;;;;;;;;;;10354646;28;20037;-81
2024/01/30 14:33:16;;;;;;;19.10;10.10;;;;;;;;;;10354496;28;20375;-77
2024/01/30 14:38:20;;;;;;;18.80;9.37;;;;;;;;;;10347573;28;20069;-78
2024/01/30 14:43:21;;;;;;;21.60;9.37;;;;;;;;;;10360751;28;20375;-81
2024/01/30 14:48:22;;;;;;;17.33;9.37;;;;;;;;;;10356891;28;20032;-80
2024/01/30 14:53:23;;;;;;;19.27;10.00;;;;;;;;;;10346199;28;20058;-79
2024/01/30 14:58:25;;;;;;;16.57;9.83;;;;;;;;;;10340521;28;20584;-75
2024/01/30 15:03:28;;;;;;;20.07;9.70;;;;;;;;;;10362040;28;20385;-78
2024/01/30 15:08:29;;;;;;;23.57;11.50;;;;;;;;;;10359666;28;20163;-77
2024/01/30 15:13:31;;;;;;;25.90;12.47;;;;;;;;;;10361629;28;20034;-77
2024/01/30 15:18:32;;;;;;;23.53;12.20;;;;;;;;;;10358930;28;20026;-77
2024/01/30 15:23:33;;;;;;;28.40;13.33;;;;;;;;;;10357667;28;20034;-81
2024/01/30 15:28:39;;;;;;;26.43;14.43;;;;;;;;;;10363075;28;20576;-78
2024/01/30 15:33:42;;;;;;;27.73;13.52;;;;;;;;;;10358696;28;20469;-78
2024/01/30 15:38:43;;;;;;;32.47;16.63;;;;;;;;;;10362223;28;20026;-78
2024/01/30 15:43:44;;;;;;;36.47;16.63;;;;;;;;;;10366636;28;20018;-80
2024/01/30 15:48:47;;;;;;;35.03;17.27;;;;;;;;;;10366282;28;20058;-82
2024/01/30 15:53:48;;;;;;;43.17;20.20;;;;;;;;;;10371242;28;20057;-78
2024/01/30 15:58:49;;;;;;;49.43;22.07;;;;;;;;;;10369688;28;20160;-78
2024/01/30 16:03:50;;;;;;;39.93;20.20;;;;;;;;;;10364162;28;20041;-79
2024/01/30 16:08:51;;;;;;;41.53;19.77;;;;;;;;;;10367357;28;20504;-78
2024/01/30 16:13:52;;;;;;;40.83;18.53;;;;;;;;;;10366972;28;20586;-78
2024/01/30 16:18:53;;;;;;;39.93;19.30;;;;;;;;;;10356317;28;20026;-77
2024/01/30 16:23:55;;;;;;;38.23;17.57;;;;;;;;;;10359384;28;20033;-82
2024/01/30 16:28:56;;;;;;;44.30;20.03;;;;;;;;;;10437999;23;20136;-77
2024/01/30 16:33:59;;;;;;;44.50;21.47;;;;;;;;;;10480760;28;20032;-82
2024/01/30 16:39:07;;;;;;;44.40;20.60;;;;;;;;;;10482270;28;20118;-79
2024/01/30 16:44:08;;;;;;;45.93;21.27;;;;;;;;;;10474094;28;20044;-78
2024/01/30 16:49:10;;;;;;;42.70;21.30;;;;;;;;;;10441946;28;20029;-78
2024/01/30 16:54:12;;;;;;;44.27;17.93;;;;;;;;;;10460472;28;20032;-78
2024/01/30 16:59:13;;;;;;;40.03;20.67;;;;;;;;;;10463310;28;20024;-79
2024/01/30 17:04:21;;;;;;;35.53;17.53;;;;;;;;;;10445315;28;20485;-80
2024/01/30 17:09:22;;;;;;;35.73;17.10;;;;;;;;;;10450072;28;20037;-78
2024/01/30 17:14:23;;;;;;;44.23;19.67;;;;;;;;;;10430840;28;20128;-78
2024/01/30 17:19:26;;;;;;;43.50;19.57;;;;;;;;;;10448078;28;20036;-79
2024/01/30 17:24:27;;;;;;;36.73;17.33;;;;;;;;;;10441084;28;20115;-78
2024/01/30 17:29:28;;;;;;;40.00;19.20;;;;;;;;;;10433631;28;20139;-78
2024/01/30 17:34:29;;;;;;;40.77;17.53;;;;;;;;;;10440239;28;20078;-77
2024/01/30 17:39:30;;;;;;;36.13;15.83;;;;;;;;;;10447242;28;20041;-80
2024/01/30 17:44:32;;;;;;;37.37;17.80;;;;;;;;;;10437997;28;20079;-79
2024/01/30 17:49:34;;;;;;;71.07;30.30;;;;;;;;;;10459868;28;20037;-79
2024/01/30 17:54:35;;;;;;;131.77;53.50;;;;;;;;;;10444144;28;20425;-79
2024/01/30 17:59:42;;;;;;;39.47;17.70;;;;;;;;;;10422821;28;20029;-78
2024/01/30 18:04:43;;;;;;;41.13;21.33;;;;;;;;;;10453467;28;20029;-79
2024/01/30 18:09:44;;;;;;;35.73;16.83;;;;;;;;;;10434537;28;20029;-79
2024/01/30 18:14:45;;;;;;;39.07;18.80;;;;;;;;;;10424301;28;20044;-80
2024/01/30 18:19:47;;;;;;;40.17;18.50;;;;;;;;;;10439048;28;20025;-77
2024/01/30 18:24:48;;;;;;;36.30;17.07;;;;;;;;;;10465735;28;20021;-78
2024/01/30 18:29:49;;;;;;;38.50;17.80;;;;;;;;;;10454615;28;20150;-80
2024/01/30 18:34:50;;;;;;;49.30;21.73;;;;;;;;;;10436998;28;20033;-78
2024/01/30 18:39:51;;;;;;;46.17;22.00;;;;;;;;;;10442509;28;20372;-77
2024/01/30 18:44:52;;;;;;;48.37;24.30;;;;;;;;;;10427925;28;20017;-77
2024/01/30 18:49:54;;;;;;;47.97;24.03;;;;;;;;;;10432539;28;20029;-78
2024/01/30 18:54:56;;;;;;;49.07;23.97;;;;;;;;;;10438668;28;20051;-77
2024/01/30 18:59:57;;;;;;;50.67;23.33;;;;;;;;;;10432004;28;20162;-77
2024/01/30 19:04:58;;;;;;;42.07;21.80;;;;;;;;;;10439758;28;20029;-81
2024/01/30 19:09:59;;;;;;;47.80;20.50;;;;;;;;;;10432168;28;20136;-77
2024/01/30 19:15:00;;;;;;;38.63;18.47;;;;;;;;;;10414123;28;20037;-77
2024/01/30 19:20:01;;;;;;;43.10;21.30;;;;;;;;;;10426326;28;20037;-76
2024/01/30 19:25:04;;;;;;;43.17;20.63;;;;;;;;;;10430235;28;20028;-76
2024/01/30 19:30:08;;;;;;;42.60;18.63;;;;;;;;;;10431539;28;20064;-78
2024/01/30 19:35:09;;;;;;;47.80;20.37;;;;;;;;;;10430495;28;20127;-77
2024/01/30 19:40:10;;;;;;;42.60;19.83;;;;;;;;;;10429123;28;20095;-79
2024/01/30 19:45:18;;;;;;;44.00;19.50;;;;;;;;;;10437816;28;20029;-80
2024/01/30 19:50:19;;;;;;;46.03;19.37;;;;;;;;;;10418968;28;20030;-78
2024/01/30 19:55:20;;;;;;;41.20;18.97;;;;;;;;;;10419097;28;20362;-76
2024/01/30 20:00:21;;;;;;;44.77;19.90;;;;;;;;;;10443182;28;20099;-78
2024/01/30 20:05:23;;;;;;;41.17;19.60;;;;;;;;;;10431035;28;20041;-77
2024/01/30 20:10:24;;;;;;;43.37;18.43;;;;;;;;;;10428951;28;20033;-77
2024/01/30 20:15:25;;;;;;;45.80;18.73;;;;;;;;;;10428717;28;20455;-76
2024/01/30 20:20:26;;;;;;;39.07;17.50;;;;;;;;;;10428682;28;20107;-78
2024/01/30 20:25:28;;;;;;;34.43;14.97;;;;;;;;;;10442645;28;20036;-77
2024/01/30 20:30:29;;;;;;;42.03;17.80;;;;;;;;;;10432175;28;20060;-77
2024/01/30 20:35:30;;;;;;;32.83;15.97;;;;;;;;;;10444371;28;20049;-77
2024/01/30 20:40:33;;;;;;;34.20;15.90;;;;;;;;;;10433266;28;20038;-77
2024/01/30 20:45:34;;;;;;;38.17;16.57;;;;;;;;;;10434225;28;20075;-78
2024/01/30 20:50:35;;;;;;;32.37;14.80;;;;;;;;;;10426458;28;20079;-78
2024/01/30 20:55:36;;;;;;;34.43;15.47;;;;;;;;;;10428575;28;20397;-77
2024/01/30 21:00:37;;;;;;;33.87;16.20;;;;;;;;;;10435300;28;20032;-77
2024/01/30 21:05:38;;;;;;;35.47;14.37;;;;;;;;;;10457452;28;20461;-77
2024/01/30 21:10:39;;;;;;;30.00;14.10;;;;;;;;;;10446563;28;20029;-82
2024/01/30 21:15:40;;;;;;;34.40;15.13;;;;;;;;;;10460365;28;20826;-78
2024/01/30 21:20:41;;;;;;;35.23;12.80;;;;;;;;;;10430958;28;20060;-77
2024/01/30 21:25:43;;;;;;;25.40;11.67;;;;;;;;;;10433658;28;20025;-77
2024/01/30 21:30:44;;;;;;;25.77;11.33;;;;;;;;;;10431412;28;20383;-77
2024/01/30 21:35:45;;;;;;;30.27;12.87;;;;;;;;;;10410314;28;20044;-78
2024/01/30 21:40:46;;;;;;;29.03;13.23;;;;;;;;;;10450245;28;20674;-78
2024/01/30 21:45:47;;;;;;;29.50;11.80;;;;;;;;;;10450901;28;20029;-78
2024/01/30 21:50:48;;;;;;;22.17;9.97;;;;;;;;;;10431015;28;20034;-82
2024/01/30 21:55:49;;;;;;;22.77;10.67;;;;;;;;;;10453283;28;20044;-78
2024/01/30 22:00:50;;;;;;;31.93;11.50;;;;;;;;;;10433769;28;20032;-77
2024/01/30 22:05:51;;;;;;;25.60;10.90;;;;;;;;;;10417546;28;20503;-77
2024/01/30 22:10:51;;;;;;;25.77;11.23;;;;;;;;;;10441327;28;20036;-77
2024/01/30 22:15:53;;;;;;;18.47;8.87;;;;;;;;;;10462704;28;20094;-78
2024/01/30 22:20:53;;;;;;;24.70;10.47;;;;;;;;;;10451574;28;20029;-81
2024/01/30 22:25:54;;;;;;;20.00;9.03;;;;;;;;;;10450217;28;20051;-80
2024/01/30 22:30:55;;;;;;;20.67;10.17;;;;;;;;;;10450851;28;20389;-77
2024/01/30 22:35:56;;;;;;;21.93;9.10;;;;;;;;;;10470021;28;20037;-77
2024/01/30 22:41:04;;;;;;;19.30;8.70;;;;;;;;;;10452944;28;20032;-77
2024/01/30 22:46:05;;;;;;;16.07;8.53;;;;;;;;;;10443142;28;20354;-80
2024/01/30 22:51:06;;;;;;;18.97;9.87;;;;;;;;;;10444739;28;20051;-80
2024/01/30 22:56:07;;;;;;;17.77;8.40;;;;;;;;;;10452654;28;20040;-78
2024/01/30 23:01:09;;;;;;;17.50;8.30;;;;;;;;;;10437097;28;20415;-78
2024/01/30 23:06:10;;;;;;;16.57;7.63;;;;;;;;;;10445237;28;20033;-78
2024/01/30 23:11:12;;;;;;;19.10;8.53;;;;;;;;;;10447080;28;20029;-77
2024/01/30 23:16:13;;;;;;;18.33;8.63;;;;;;;;;;10441705;28;20059;-77
2024/01/30 23:21:14;;;;;;;20.00;8.97;;;;;;;;;;10454056;28;20037;-77
2024/01/30 23:26:15;;;;;;;18.70;8.67;;;;;;;;;;10430064;28;20831;-77
2024/01/30 23:31:16;;;;;;;18.90;9.43;;;;;;;;;;10430493;28;20551;-77
2024/01/30 23:36:17;;;;;;;22.30;9.77;;;;;;;;;;10461332;28;20041;-77
2024/01/30 23:41:18;;;;;;;17.17;9.13;;;;;;;;;;10477285;28;20032;-77
2024/01/30 23:46:19;;;;;;;21.97;9.33;;;;;;;;;;10441371;28;20026;-77
2024/01/30 23:51:20;;;;;;;19.93;9.83;;;;;;;;;;10477080;28;20102;-82
2024/01/30 23:56:21;;;;;;;18.43;9.00;;;;;;;;;;10476046;28;20037;-77
